createdAt,value
2024-01-16T00:00:01.721Z,14.30
2024-01-16T00:02:33.341Z,15.00
2024-01-16T00:05:02.191Z,15.80
2024-01-16T00:07:30.920Z,16.90
2024-01-16T00:09:59.908Z,16.10
2024-01-16T00:12:28.598Z,16.60
2024-01-16T00:14:57.281Z,16.50
2024-01-16T00:17:25.938Z,18.00
2024-01-16T00:19:54.562Z,17.70
2024-01-16T00:22:23.172Z,16.20
2024-01-16T00:24:51.832Z,15.40
2024-01-16T00:27:20.555Z,16.10
2024-01-16T00:29:49.712Z,16.00
2024-01-16T00:32:18.828Z,16.90
2024-01-16T00:34:47.536Z,16.70
2024-01-16T00:37:16.191Z,16.60
2024-01-16T00:39:44.897Z,17.80
2024-01-16T00:42:13.566Z,17.30
2024-01-16T00:44:42.375Z,17.70
2024-01-16T00:47:11.187Z,17.80
2024-01-16T00:49:40.057Z,17.80
2024-01-16T00:52:08.581Z,16.80
2024-01-16T00:54:37.305Z,15.50
2024-01-16T00:57:06.121Z,15.90
2024-01-16T00:59:34.973Z,15.60
2024-01-16T01:02:05.032Z,14.10
2024-01-16T01:04:35.645Z,14.20
2024-01-16T01:07:04.521Z,15.80
2024-01-16T01:09:34.196Z,13.80
2024-01-16T01:12:02.676Z,13.20
2024-01-16T01:14:31.365Z,14.10
2024-01-16T01:17:00.521Z,13.30
2024-01-16T01:19:29.185Z,12.40
2024-01-16T01:21:58.001Z,12.70
2024-01-16T01:24:26.662Z,13.60
2024-01-16T01:26:55.472Z,13.20
2024-01-16T01:29:24.065Z,13.70
2024-01-16T01:31:53.029Z,13.90
2024-01-16T01:34:21.810Z,12.70
2024-01-16T01:36:50.913Z,13.50
2024-01-16T01:39:19.602Z,14.60
2024-01-16T01:41:48.343Z,11.80
2024-01-16T01:44:17.812Z,14.10
2024-01-16T01:46:47.681Z,12.90
2024-01-16T01:49:17.055Z,14.00
2024-01-16T01:51:45.892Z,14.30
2024-01-16T01:54:15.224Z,14.80
2024-01-16T01:56:46.006Z,13.90
2024-01-16T01:59:19.750Z,13.80
2024-01-16T02:01:49.234Z,13.60
2024-01-16T02:04:18.567Z,15.00
2024-01-16T02:06:47.333Z,14.30
2024-01-16T02:09:18.304Z,14.90
2024-01-16T02:11:46.939Z,17.40
2024-01-16T02:14:15.901Z,17.80
2024-01-16T02:16:47.650Z,16.70
2024-01-16T02:19:16.516Z,16.70
2024-01-16T02:21:51.827Z,17.50
2024-01-16T02:24:20.953Z,16.40
2024-01-16T02:26:49.703Z,16.10
2024-01-16T02:29:20.870Z,17.60
2024-01-16T02:31:49.559Z,18.80
2024-01-16T02:34:18.302Z,18.40
2024-01-16T02:36:47.054Z,16.90
2024-01-16T02:39:16.124Z,17.90
2024-01-16T02:41:44.954Z,16.30
2024-01-16T02:44:13.962Z,15.60
2024-01-16T02:46:42.705Z,17.30
2024-01-16T02:49:11.821Z,16.50
2024-01-16T02:51:40.243Z,16.60
2024-01-16T02:54:09.657Z,17.60
2024-01-16T02:56:38.273Z,17.60
2024-01-16T02:59:07.219Z,33.30
2024-01-16T03:01:36.191Z,18.40
2024-01-16T03:04:05.362Z,16.80
2024-01-16T03:06:34.200Z,17.30
2024-01-16T03:09:03.049Z,17.10
2024-01-16T03:11:33.908Z,18.20
2024-01-16T03:14:02.899Z,17.40
2024-01-16T03:16:31.558Z,18.60
2024-01-16T03:19:00.314Z,17.20
2024-01-16T03:21:29.053Z,18.00
2024-01-16T03:23:57.801Z,18.60
2024-01-16T03:26:26.678Z,18.20
2024-01-16T03:28:56.337Z,18.00
2024-01-16T03:31:25.561Z,17.20
2024-01-16T03:33:54.157Z,17.00
2024-01-16T03:36:22.998Z,18.10
2024-01-16T03:38:51.581Z,19.20
2024-01-16T03:41:20.200Z,28.00
2024-01-16T03:43:49.148Z,24.30
2024-01-16T03:46:18.541Z,20.70
2024-01-16T03:48:47.862Z,24.00
2024-01-16T03:51:19.327Z,24.50
2024-01-16T03:53:48.246Z,20.90
2024-01-16T03:56:17.776Z,21.10
2024-01-16T03:58:46.315Z,21.70
2024-01-16T04:01:15.688Z,22.20
2024-01-16T04:03:44.516Z,21.60
2024-01-16T04:06:19.947Z,23.60
2024-01-16T04:08:48.938Z,22.40
2024-01-16T04:11:17.783Z,19.90
2024-01-16T04:13:46.835Z,21.30
2024-01-16T04:16:15.430Z,21.30
2024-01-16T04:18:45.490Z,20.30
2024-01-16T04:21:15.597Z,21.90
2024-01-16T04:23:46.196Z,19.10
2024-01-16T04:26:15.176Z,19.10
2024-01-16T04:28:44.379Z,19.60
2024-01-16T04:31:13.606Z,19.50
2024-01-16T04:33:42.466Z,18.30
2024-01-16T04:36:11.456Z,20.20
2024-01-16T04:38:42.002Z,19.10
2024-01-16T04:41:10.642Z,19.90
2024-01-16T04:43:39.321Z,19.50
2024-01-16T04:46:08.078Z,29.20
2024-01-16T04:48:36.815Z,23.50
2024-01-16T04:51:05.936Z,23.60
2024-01-16T04:53:35.050Z,24.80
2024-01-16T04:56:03.718Z,21.70
2024-01-16T04:58:32.323Z,20.60
2024-01-16T05:01:00.900Z,19.00
2024-01-16T05:03:29.414Z,18.00
2024-01-16T05:05:58.694Z,18.30
2024-01-16T05:08:27.302Z,20.30
2024-01-16T05:10:56.130Z,21.50
2024-01-16T05:13:24.512Z,21.20
2024-01-16T05:15:52.948Z,23.20
2024-01-16T05:18:21.638Z,26.40
2024-01-16T05:20:50.868Z,23.50
2024-01-16T05:23:19.717Z,20.20
2024-01-16T05:25:48.201Z,20.90
2024-01-16T05:28:16.798Z,20.20
2024-01-16T05:30:47.181Z,19.30
2024-01-16T05:33:15.815Z,21.10
2024-01-16T05:35:44.448Z,23.40
2024-01-16T05:38:14.000Z,23.30
2024-01-16T05:40:43.074Z,21.80
2024-01-16T05:43:11.495Z,22.90
2024-01-16T05:45:39.920Z,22.10
2024-01-16T05:48:09.862Z,24.80
2024-01-16T05:50:38.615Z,23.70
2024-01-16T05:53:07.359Z,21.10
2024-01-16T05:55:38.057Z,21.40
2024-01-16T05:58:06.546Z,21.10
2024-01-16T06:00:35.555Z,20.00
2024-01-16T06:03:04.737Z,20.90
2024-01-16T06:05:33.273Z,19.90
2024-01-16T06:08:01.746Z,19.10
2024-01-16T06:10:30.177Z,19.90
2024-01-16T06:12:58.647Z,18.30
2024-01-16T06:15:27.062Z,23.60
2024-01-16T06:17:55.644Z,24.20
2024-01-16T06:20:26.057Z,24.70
2024-01-16T06:22:54.494Z,25.80
2024-01-16T06:25:22.972Z,24.90
2024-01-16T06:27:51.469Z,24.90
2024-01-16T06:30:20.175Z,21.80
2024-01-16T06:32:50.099Z,22.20
2024-01-16T06:35:19.101Z,24.70
2024-01-16T06:37:47.428Z,23.30
2024-01-16T06:40:16.129Z,24.60
2024-01-16T06:42:44.528Z,20.20
2024-01-16T06:45:14.626Z,22.10
2024-01-16T06:47:43.292Z,20.00
2024-01-16T06:50:11.936Z,17.20
2024-01-16T06:52:40.425Z,19.90
2024-01-16T06:55:09.242Z,21.80
2024-01-16T06:57:37.673Z,23.40
2024-01-16T07:00:08.698Z,24.10
2024-01-16T07:02:37.467Z,24.90
2024-01-16T07:05:06.296Z,23.50
2024-01-16T07:07:34.829Z,24.80
2024-01-16T07:10:03.908Z,22.70
2024-01-16T07:12:32.604Z,26.80
2024-01-16T07:15:01.322Z,28.50
2024-01-16T07:17:29.993Z,32.60
2024-01-16T07:19:59.910Z,36.90
2024-01-16T07:22:28.569Z,32.30
2024-01-16T07:24:57.058Z,32.00
2024-01-16T07:27:25.541Z,31.30
2024-01-16T07:29:53.978Z,30.60
2024-01-16T07:32:22.428Z,35.90
2024-01-16T07:34:52.739Z,28.90
2024-01-16T07:37:21.135Z,24.50
2024-01-16T07:39:49.494Z,26.80
2024-01-16T07:42:18.003Z,28.80
2024-01-16T07:44:46.563Z,27.40
2024-01-16T07:47:15.163Z,25.90
2024-01-16T07:49:44.548Z,27.00
2024-01-16T07:52:13.631Z,28.90
2024-01-16T07:54:42.127Z,29.30
2024-01-16T07:57:10.590Z,30.00
2024-01-16T07:59:39.056Z,27.90
2024-01-16T08:02:07.688Z,27.70
2024-01-16T08:04:36.541Z,29.10
2024-01-16T08:07:05.187Z,23.00
2024-01-16T08:09:33.609Z,23.00
2024-01-16T08:12:03.713Z,22.20
2024-01-16T08:14:32.164Z,24.10
2024-01-16T08:17:00.567Z,22.90
2024-01-16T08:19:29.180Z,21.30
2024-01-16T08:21:57.751Z,25.40
2024-01-16T08:24:26.173Z,24.40
2024-01-16T08:26:54.745Z,24.40
2024-01-16T08:29:23.416Z,23.70
2024-01-16T08:31:54.851Z,22.70
2024-01-16T08:34:23.470Z,22.80
2024-01-16T08:36:52.165Z,19.70
2024-01-16T08:39:20.912Z,16.80
2024-01-16T08:41:49.482Z,19.90
2024-01-16T08:44:18.018Z,21.50
2024-01-16T08:46:47.514Z,26.80
2024-01-16T08:49:19.824Z,26.10
2024-01-16T08:51:49.609Z,26.30
2024-01-16T08:54:18.091Z,19.50
2024-01-16T08:56:46.540Z,18.60
2024-01-16T08:59:15.039Z,20.90
2024-01-16T09:01:43.496Z,18.50
2024-01-16T09:04:13.103Z,17.50
2024-01-16T09:06:41.872Z,14.80
2024-01-16T09:09:10.957Z,17.30
2024-01-16T09:11:39.669Z,16.90
2024-01-16T09:14:08.107Z,20.70
2024-01-16T09:16:36.607Z,19.30
2024-01-16T09:19:05.212Z,21.40
2024-01-16T09:21:33.700Z,20.70
2024-01-16T09:24:02.151Z,15.20
2024-01-16T09:26:32.985Z,17.20
2024-01-16T09:29:01.461Z,19.90
2024-01-16T09:31:29.903Z,21.10
2024-01-16T09:33:58.403Z,19.20
2024-01-16T09:36:26.870Z,17.40
2024-01-16T09:38:55.351Z,16.50
2024-01-16T09:41:24.574Z,17.30
2024-01-16T09:43:53.237Z,18.00
2024-01-16T09:46:23.938Z,16.50
2024-01-16T09:48:52.801Z,16.80
2024-01-16T09:51:21.510Z,17.60
2024-01-16T09:53:50.008Z,15.90
2024-01-16T09:56:23.525Z,12.30
2024-01-16T09:58:56.435Z,13.50
2024-01-16T10:01:28.082Z,12.80
2024-01-16T10:03:56.960Z,14.60
2024-01-16T10:06:25.648Z,19.80
2024-01-16T10:08:54.167Z,15.90
2024-01-16T10:11:22.630Z,19.60
2024-01-16T10:13:51.101Z,21.10
2024-01-16T10:16:21.038Z,20.20
2024-01-16T10:18:51.462Z,12.50
2024-01-16T10:21:23.795Z,17.30
2024-01-16T10:23:52.379Z,14.90
2024-01-16T10:26:22.587Z,17.20
2024-01-16T10:28:51.014Z,18.00
2024-01-16T10:31:19.560Z,15.90
2024-01-16T10:33:48.243Z,12.80
2024-01-16T10:36:18.145Z,18.80
2024-01-16T10:38:47.234Z,18.40
2024-01-16T10:41:18.517Z,17.10
2024-01-16T10:43:47.250Z,19.50
2024-01-16T10:46:17.306Z,13.60
2024-01-16T10:48:59.480Z,17.40
2024-01-16T10:51:29.573Z,14.10
2024-01-16T10:54:00.756Z,15.50
2024-01-16T10:56:29.607Z,17.10
2024-01-16T10:59:12.767Z,17.80
2024-01-16T11:01:44.379Z,13.50
2024-01-16T11:04:16.044Z,13.00
2024-01-16T11:06:45.505Z,11.70
2024-01-16T11:09:16.717Z,13.10
2024-01-16T11:11:48.474Z,15.70
2024-01-16T11:14:17.493Z,14.30
2024-01-16T11:16:48.220Z,17.70
2024-01-16T11:19:31.492Z,16.80
2024-01-16T11:22:06.581Z,18.20
2024-01-16T11:24:35.159Z,17.40
2024-01-16T11:27:05.299Z,18.40
2024-01-16T11:29:37.811Z,17.50
2024-01-16T11:32:18.124Z,17.70
2024-01-16T11:34:56.821Z,18.70
2024-01-16T11:37:35.474Z,18.70
2024-01-16T11:40:22.372Z,17.60
2024-01-16T11:42:56.108Z,17.50
2024-01-16T11:45:30.591Z,21.70
2024-01-16T11:48:12.565Z,18.70
2024-01-16T11:50:41.497Z,17.30
2024-01-16T11:53:10.168Z,17.80
2024-01-16T11:55:54.143Z,13.40
2024-01-16T11:58:22.527Z,14.90
2024-01-16T12:00:54.430Z,14.10
2024-01-16T12:03:31.674Z,18.30
2024-01-16T12:06:04.941Z,17.20
2024-01-16T12:08:34.011Z,14.30
2024-01-16T12:11:02.470Z,14.60
2024-01-16T12:13:31.822Z,12.30
2024-01-16T12:16:06.099Z,11.60
2024-01-16T12:18:42.385Z,9.70
2024-01-16T12:21:14.752Z,10.20
2024-01-16T12:23:50.127Z,8.90
2024-01-16T12:26:25.155Z,9.00
2024-01-16T12:28:59.461Z,8.30
2024-01-16T12:31:29.678Z,7.80
2024-01-16T12:34:09.582Z,9.10
2024-01-16T12:36:39.587Z,8.00
2024-01-16T12:39:13.157Z,7.90
2024-01-16T12:41:45.118Z,7.90
2024-01-16T12:44:16.843Z,6.40
2024-01-16T12:49:25.452Z,7.60
2024-01-16T12:52:14.550Z,7.00
2024-01-16T12:54:42.955Z,6.50
2024-01-16T12:57:15.286Z,6.90
2024-01-16T12:59:43.945Z,5.70
2024-01-16T13:02:21.392Z,5.80
2024-01-16T13:04:57.480Z,5.30
2024-01-16T13:07:27.459Z,5.40
2024-01-16T13:10:13.553Z,5.50
2024-01-16T13:12:42.565Z,4.90
2024-01-16T13:15:12.686Z,4.80
2024-01-16T13:17:41.427Z,5.10
2024-01-16T13:20:11.829Z,5.20
2024-01-16T13:22:44.953Z,5.00
2024-01-16T13:25:16.665Z,4.20
2024-01-16T13:27:45.126Z,5.00
2024-01-16T13:30:14.086Z,5.70
2024-01-16T13:32:42.797Z,6.00
2024-01-16T13:35:13.068Z,5.80
2024-01-16T13:37:42.507Z,5.50
2024-01-16T13:40:13.181Z,6.00
2024-01-16T13:42:41.676Z,6.70
2024-01-16T13:45:10.350Z,6.70
2024-01-16T13:47:41.946Z,7.70
2024-01-16T13:50:11.324Z,7.10
2024-01-16T13:52:41.764Z,5.40
2024-01-16T13:55:10.865Z,5.10
2024-01-16T13:57:39.574Z,5.40
2024-01-16T14:00:14.655Z,5.80
2024-01-16T14:02:45.639Z,5.30
2024-01-16T14:05:19.494Z,5.60
2024-01-16T14:07:52.125Z,5.60
2024-01-16T14:10:21.275Z,4.80
2024-01-16T14:12:53.250Z,5.30
2024-01-16T14:15:25.220Z,5.10
2024-01-16T14:17:56.227Z,5.70
2024-01-16T14:20:28.532Z,4.90
2024-01-16T14:22:59.174Z,5.60
2024-01-16T14:25:28.069Z,5.90
2024-01-16T14:28:01.640Z,6.60
2024-01-16T14:30:30.464Z,5.90
2024-01-16T14:32:59.139Z,6.00
2024-01-16T14:35:27.733Z,6.60
2024-01-16T14:37:56.667Z,6.50
2024-01-16T14:40:28.818Z,6.10
2024-01-16T14:43:00.753Z,6.90
2024-01-16T14:45:29.192Z,7.00
2024-01-16T14:47:57.891Z,7.00
2024-01-16T14:50:26.661Z,7.30
2024-01-16T14:52:55.173Z,7.10
2024-01-16T14:55:24.049Z,7.30
2024-01-16T14:58:01.589Z,7.40
2024-01-16T15:00:31.940Z,7.60
2024-01-16T15:03:00.831Z,7.40
2024-01-16T15:05:30.480Z,9.70
2024-01-16T15:07:59.328Z,9.00
2024-01-16T15:10:28.046Z,7.80
2024-01-16T15:12:56.579Z,7.10
2024-01-16T15:15:25.191Z,7.70
2024-01-16T15:17:53.869Z,8.70
2024-01-16T15:20:22.358Z,9.70
2024-01-16T15:22:53.859Z,13.60
2024-01-16T15:25:24.025Z,12.30
2024-01-16T15:27:55.589Z,13.10
2024-01-16T15:30:29.183Z,11.70
2024-01-16T15:32:57.835Z,10.60
2024-01-16T15:35:26.540Z,10.50
2024-01-16T15:37:55.868Z,8.30
2024-01-16T15:40:27.413Z,11.30
2024-01-16T15:42:58.628Z,10.30
2024-01-16T15:45:28.044Z,8.60
2024-01-16T15:47:56.702Z,7.20
2024-01-16T15:50:25.313Z,6.40
2024-01-16T15:52:53.773Z,6.50
2024-01-16T15:55:22.442Z,7.20
2024-01-16T15:57:50.946Z,6.80
2024-01-16T16:00:20.849Z,8.20
2024-01-16T16:02:50.618Z,6.30
2024-01-16T16:05:19.882Z,6.00
2024-01-16T16:07:48.352Z,5.40
2024-01-16T16:10:16.988Z,7.50
2024-01-16T16:12:45.503Z,5.50
2024-01-16T16:15:14.108Z,8.00
2024-01-16T16:17:42.759Z,6.80
2024-01-16T16:20:12.162Z,7.30
2024-01-16T16:22:40.620Z,6.30
2024-01-16T16:25:09.173Z,6.70
2024-01-16T16:27:37.625Z,6.80
2024-01-16T16:30:06.958Z,7.00
2024-01-16T16:32:35.538Z,8.70
2024-01-16T16:35:04.336Z,9.50
2024-01-16T16:37:33.658Z,8.50
2024-01-16T16:40:02.171Z,7.40
2024-01-16T16:42:30.641Z,11.00
2024-01-16T16:45:00.685Z,16.30
2024-01-16T16:47:29.346Z,25.30
2024-01-16T16:49:57.834Z,20.00
2024-01-16T16:52:26.384Z,21.00
2024-01-16T16:54:54.847Z,41.10
2024-01-16T16:57:23.656Z,39.20
2024-01-16T16:59:52.165Z,56.80
2024-01-16T17:02:21.589Z,51.50
2024-01-16T17:04:50.261Z,38.00
2024-01-16T17:07:18.879Z,31.60
2024-01-16T17:09:47.526Z,31.20
2024-01-16T17:12:15.963Z,33.70
2024-01-16T17:14:44.451Z,34.10
2024-01-16T17:17:13.000Z,31.40
2024-01-16T17:19:41.982Z,28.00
2024-01-16T17:22:10.658Z,26.50
2024-01-16T17:24:39.655Z,26.80
2024-01-16T17:27:08.243Z,22.80
2024-01-16T17:29:37.994Z,24.90
2024-01-16T17:32:07.259Z,21.50
2024-01-16T17:34:35.686Z,24.70
2024-01-16T17:37:04.333Z,18.30
2024-01-16T17:39:32.960Z,20.80
2024-01-16T17:42:01.421Z,19.10
2024-01-16T17:44:30.859Z,28.50
2024-01-16T17:46:59.270Z,17.90
2024-01-16T17:49:29.076Z,21.60
2024-01-16T17:51:57.538Z,20.40
2024-01-16T17:54:25.961Z,21.50
2024-01-16T17:56:54.484Z,21.50
2024-01-16T17:59:28.008Z,23.00
2024-01-16T18:01:56.377Z,23.20
2024-01-16T18:04:24.833Z,45.60
2024-01-16T18:06:53.663Z,44.70
2024-01-16T18:09:22.247Z,30.20
2024-01-16T18:11:58.145Z,19.50
2024-01-16T18:14:26.751Z,31.00
2024-01-16T18:16:55.487Z,15.20
2024-01-16T18:19:26.030Z,18.30
2024-01-16T18:21:56.734Z,14.40
2024-01-16T18:24:26.094Z,13.50
2024-01-16T18:26:54.920Z,15.70
2024-01-16T18:29:23.508Z,12.60
2024-01-16T18:31:52.309Z,9.30
2024-01-16T18:34:23.667Z,10.30
2024-01-16T18:36:54.462Z,11.30
2024-01-16T18:39:23.405Z,10.70
2024-01-16T18:41:52.287Z,9.80
2024-01-16T18:44:21.065Z,10.90
2024-01-16T18:46:49.659Z,10.50
2024-01-16T18:49:18.372Z,12.40
2024-01-16T18:51:48.588Z,16.80
2024-01-16T18:54:17.401Z,17.50
2024-01-16T18:56:46.561Z,16.40
2024-01-16T18:59:15.067Z,16.30
2024-01-16T19:01:44.953Z,17.50
2024-01-16T19:04:14.392Z,15.60
2024-01-16T19:06:46.277Z,17.70
2024-01-16T19:09:16.456Z,19.50
2024-01-16T19:11:49.932Z,17.50
2024-01-16T19:14:18.541Z,16.40
2024-01-16T19:16:47.884Z,14.80
2024-01-16T19:19:16.439Z,16.80
2024-01-16T19:21:47.573Z,15.40
2024-01-16T19:24:17.066Z,13.00
2024-01-16T19:26:45.561Z,17.60
2024-01-16T19:29:13.947Z,14.60
2024-01-16T19:31:46.136Z,13.20
2024-01-16T19:34:14.784Z,13.70
2024-01-16T19:36:43.265Z,12.70
2024-01-16T19:39:17.747Z,14.40
2024-01-16T19:41:46.302Z,9.40
2024-01-16T19:44:16.852Z,13.20
2024-01-16T19:46:45.505Z,16.00
2024-01-16T19:49:14.654Z,15.00
2024-01-16T19:51:43.215Z,18.00
2024-01-16T19:54:12.113Z,14.90
2024-01-16T19:56:43.443Z,16.00
2024-01-16T19:59:12.472Z,16.80
2024-01-16T20:01:42.644Z,11.40
2024-01-16T20:04:11.149Z,12.00
2024-01-16T20:06:40.407Z,9.00
2024-01-16T20:09:09.037Z,10.40
2024-01-16T20:11:37.622Z,14.60
2024-01-16T20:14:06.074Z,12.30
2024-01-16T20:16:34.570Z,11.90
2024-01-16T20:19:04.093Z,12.10
2024-01-16T20:21:34.342Z,11.70
2024-01-16T20:24:03.876Z,12.00
2024-01-16T20:26:34.282Z,12.50
2024-01-16T20:29:02.776Z,12.40
2024-01-16T20:31:33.198Z,13.30
2024-01-16T20:34:01.941Z,16.20
2024-01-16T20:36:30.663Z,15.00
2024-01-16T20:38:59.240Z,13.20
2024-01-16T20:41:27.639Z,13.60
2024-01-16T20:43:56.122Z,10.90
2024-01-16T20:46:24.987Z,11.40
2024-01-16T20:48:53.495Z,12.70
2024-01-16T20:51:23.196Z,10.60
2024-01-16T20:53:51.765Z,11.60
2024-01-16T20:56:20.241Z,12.30
2024-01-16T20:58:48.918Z,12.20
2024-01-16T21:01:17.276Z,13.00
2024-01-16T21:03:47.981Z,13.50
2024-01-16T21:06:16.571Z,13.80
2024-01-16T21:08:45.190Z,13.90
2024-01-16T21:11:13.737Z,12.40
2024-01-16T21:13:42.178Z,14.70
2024-01-16T21:16:13.066Z,11.20
2024-01-16T21:18:45.814Z,11.40
2024-01-16T21:21:14.611Z,13.00
2024-01-16T21:23:43.855Z,11.80
2024-01-16T21:26:12.776Z,9.70
2024-01-16T21:28:41.405Z,13.90
2024-01-16T21:31:10.451Z,13.10
2024-01-16T21:33:39.078Z,15.00
2024-01-16T21:36:09.676Z,18.20
2024-01-16T21:38:38.389Z,14.90
2024-01-16T21:41:10.304Z,17.90
2024-01-16T21:43:38.672Z,15.00
2024-01-16T21:46:07.084Z,11.30
2024-01-16T21:48:36.373Z,14.50
2024-01-16T21:51:06.326Z,15.50
2024-01-16T21:53:37.511Z,14.00
2024-01-16T21:56:06.268Z,11.10
2024-01-16T21:58:34.734Z,12.80
2024-01-16T22:01:03.665Z,9.70
2024-01-16T22:03:32.083Z,8.60
2024-01-16T22:06:00.631Z,8.90
2024-01-16T22:08:30.224Z,8.70
2024-01-16T22:10:58.708Z,10.20
2024-01-16T22:13:27.355Z,9.10
2024-01-16T22:15:55.807Z,10.20
2024-01-16T22:18:24.744Z,10.80
2024-01-16T22:20:53.179Z,9.60
2024-01-16T22:23:21.729Z,10.60
2024-01-16T22:25:50.124Z,12.60
2024-01-16T22:28:18.564Z,11.50
2024-01-16T22:30:47.085Z,10.00
2024-01-16T22:33:15.594Z,11.70
2024-01-16T22:35:44.124Z,9.70
2024-01-16T22:38:12.473Z,9.90
2024-01-16T22:40:40.958Z,11.70
2024-01-16T22:43:09.816Z,11.30
2024-01-16T22:45:38.541Z,10.80
2024-01-16T22:48:12.552Z,10.50
2024-01-16T22:50:42.734Z,13.00
2024-01-16T22:53:11.481Z,11.50
2024-01-16T22:55:39.947Z,14.20
2024-01-16T22:58:09.185Z,13.90
2024-01-16T23:00:40.678Z,14.80
2024-01-16T23:03:10.803Z,11.30
2024-01-16T23:05:44.325Z,11.70
2024-01-16T23:08:12.788Z,9.90
2024-01-16T23:10:41.176Z,9.80
2024-01-16T23:13:11.208Z,11.30
2024-01-16T23:15:39.713Z,11.10
2024-01-16T23:18:08.631Z,9.70
2024-01-16T23:20:37.326Z,9.90
2024-01-16T23:23:08.082Z,9.50
2024-01-16T23:25:36.639Z,10.20
2024-01-16T23:28:05.659Z,10.50
2024-01-16T23:30:34.864Z,9.80
2024-01-16T23:33:05.099Z,12.20
2024-01-16T23:35:33.545Z,9.90
2024-01-16T23:38:02.103Z,10.00
2024-01-16T23:40:30.935Z,10.90
2024-01-16T23:42:59.391Z,11.70
2024-01-16T23:45:33.258Z,13.20
2024-01-16T23:48:03.096Z,14.60
2024-01-16T23:50:33.904Z,11.80
2024-01-16T23:53:02.417Z,11.40
2024-01-16T23:55:30.765Z,12.70
2024-01-16T23:57:59.303Z,12.70
